Time;durP1;ratioP1;P1;durP2;ratioP2;P2;SDS_P1;SDS_P2;PMS_P1;PMS_P2;Temp;Humidity;BMP_temperature;BMP_pressure;BME280_temperature;BME280_humidity;BME280_pressure;Samples;Min_cycle;Max_cycle;Signal;HPM_P1;HPM_P2
2021/10/24 00:01:19;;;;;;;11.00;5.95;;;5.60;74.90;;;3.80;78.06;97107.59;4991322;28;20026;-71
2021/10/24 00:03:46;;;;;;;11.52;6.72;;;5.60;75.10;;;3.79;77.77;97111.13;4975493;28;20411;-70
2021/10/24 00:06:12;;;;;;;12.13;6.35;;;5.60;75.40;;;3.74;78.50;97113.28;5009440;28;20069;-71
2021/10/24 00:08:37;;;;;;;11.82;6.47;;;5.50;75.50;;;3.73;78.61;97106.44;4974573;28;20120;-70
2021/10/24 00:11:03;;;;;;;12.35;6.53;;;5.60;75.40;;;3.74;78.53;97102.88;4978010;28;20042;-71
2021/10/24 00:13:29;;;;;;;11.38;6.50;;;5.50;75.50;;;3.73;78.65;97109.03;4991987;28;20466;-71
2021/10/24 00:15:56;;;;;;;12.63;6.50;;;5.50;75.70;;;3.69;78.73;97111.06;4992250;28;20117;-71
2021/10/24 00:18:23;;;;;;;11.65;7.05;;;5.50;75.80;;;3.67;79.14;97108.56;4995134;28;20034;-70
2021/10/24 00:20:50;;;;;;;11.77;6.90;;;5.50;75.90;;;3.64;78.84;97103.63;4961846;28;20128;-70
2021/10/24 00:23:16;;;;;;;11.23;5.88;;;5.50;75.70;;;3.64;79.12;97098.41;4976202;28;20031;-71
2021/10/24 00:25:42;;;;;;;14.77;6.90;;;5.40;75.70;;;3.60;79.34;97085.75;4983460;28;20038;-71
2021/10/24 00:28:07;;;;;;;14.70;6.78;;;5.40;75.90;;;3.63;79.16;97091.56;5010934;28;20037;-71
2021/10/24 00:30:34;;;;;;;10.25;6.45;;;5.40;76.30;;;3.62;78.90;97083.84;4994022;28;20037;-70
2021/10/24 00:33:03;;;;;;;11.32;6.45;;;5.40;75.80;;;3.60;79.83;97086.56;4994387;28;20030;-71
2021/10/24 00:35:29;;;;;;;14.60;6.90;;;5.40;76.20;;;3.60;79.27;97085.75;4995111;28;20034;-70
2021/10/24 00:37:55;;;;;;;14.90;6.78;;;5.40;76.20;;;3.56;79.22;97085.16;5010525;28;20096;-72
2021/10/24 00:40:21;;;;;;;16.20;6.28;;;5.40;76.30;;;3.58;79.58;97083.28;5010538;28;20479;-70
2021/10/24 00:42:49;;;;;;;11.98;7.25;;;5.40;76.40;;;3.57;79.69;97080.78;5010562;28;20032;-72
2021/10/24 00:45:14;;;;;;;15.40;7.00;;;5.40;76.50;;;3.58;80.08;97082.44;4991214;28;20067;-72
2021/10/24 00:47:40;;;;;;;13.10;6.57;;;5.40;76.60;;;3.51;79.92;97071.69;5009664;28;20048;-72
2021/10/24 00:50:06;;;;;;;12.13;6.53;;;5.40;76.70;;;3.56;79.85;97079.97;4993634;28;20036;-71
2021/10/24 00:52:32;;;;;;;10.45;6.68;;;5.40;76.70;;;3.53;80.13;97074.19;5010268;28;20139;-71
2021/10/24 00:54:58;;;;;;;13.82;6.50;;;5.30;76.90;;;3.51;80.08;97073.47;5015489;28;20033;-71
2021/10/24 00:57:23;;;;;;;10.90;6.60;;;5.30;77.00;;;3.49;80.41;97072.78;4998107;28;20388;-70
2021/10/24 00:59:49;;;;;;;15.95;6.82;;;5.30;76.90;;;3.47;80.29;97070.31;4993060;28;20506;-71
2021/10/24 01:02:15;;;;;;;10.93;7.05;;;5.20;76.90;;;3.44;80.44;97069.72;4993403;28;20157;-70
2021/10/24 01:04:41;;;;;;;13.27;6.40;;;5.20;77.00;;;3.41;80.49;97060.38;5012047;28;20030;-70
2021/10/24 01:07:06;;;;;;;14.48;6.85;;;5.20;76.80;;;3.39;80.42;97051.84;5010129;28;20034;-70
2021/10/24 01:09:32;;;;;;;15.10;6.90;;;5.20;77.00;;;3.37;80.63;97053.75;4977710;28;20038;-71
2021/10/24 01:11:58;;;;;;;11.40;6.45;;;5.20;77.00;;;3.38;80.26;97055.41;4993550;28;20195;-70
2021/10/24 01:14:24;;;;;;;11.93;6.85;;;5.20;77.00;;;3.35;80.51;97046.06;4993642;28;20034;-70
2021/10/24 01:16:51;;;;;;;16.65;7.13;;;5.10;77.00;;;3.34;80.33;97047.03;4977977;28;20056;-71
2021/10/24 01:19:17;;;;;;;12.30;6.43;;;5.10;77.00;;;3.32;80.78;97045.50;4994441;28;20516;-71
2021/10/24 01:21:43;;;;;;;16.02;6.80;;;5.10;77.10;;;3.25;80.79;97037.34;4989773;28;20050;-71
2021/10/24 01:24:08;;;;;;;11.07;6.57;;;5.10;77.10;;;3.31;80.52;97036.03;5010237;28;20066;-71
2021/10/24 01:26:35;;;;;;;12.90;6.45;;;5.10;77.00;;;3.29;80.88;97040.53;4989596;28;20034;-71
2021/10/24 01:29:01;;;;;;;10.63;6.05;;;5.10;77.10;;;3.31;80.48;97043.84;5009218;28;20033;-71
2021/10/24 01:31:27;;;;;;;12.82;6.95;;;5.10;77.20;;;3.27;80.91;97039.84;5010220;28;20132;-71
2021/10/24 01:33:52;;;;;;;12.02;6.35;;;5.10;77.20;;;3.24;81.19;97027.91;4993346;28;20034;-69
2021/10/24 01:36:18;;;;;;;11.32;6.88;;;5.10;77.30;;;3.20;81.17;97026.50;4976673;28;20049;-69
2021/10/24 01:38:49;;;;;;;10.93;5.95;;;5.10;77.40;;;3.27;81.12;97032.03;5009323;28;20026;-70
2021/10/24 01:41:15;;;;;;;14.60;7.18;;;5.10;77.30;;;3.24;80.93;97027.06;4994132;28;20052;-71
2021/10/24 01:43:41;;;;;;;14.68;6.57;;;5.10;77.30;;;3.20;80.65;97023.06;4993580;28;20444;-73
2021/10/24 01:46:06;;;;;;;15.75;6.55;;;5.00;77.30;;;3.20;81.13;97031.69;5005786;28;20059;-71
2021/10/24 01:48:32;;;;;;;11.75;6.85;;;5.00;77.30;;;3.19;80.90;97034.41;5009119;28;20049;-71
2021/10/24 01:50:58;;;;;;;11.43;6.43;;;5.00;77.30;;;3.17;81.09;97026.75;5008976;28;20044;-71
2021/10/24 01:53:30;;;;;;;10.30;5.93;;;5.00;77.20;;;3.16;81.67;97027.66;4977402;28;20045;-71
2021/10/24 01:55:56;;;;;;;11.63;6.07;;;5.00;77.10;;;3.14;81.37;97026.13;4998807;28;20033;-71
2021/10/24 01:58:22;;;;;;;11.45;6.00;;;5.00;77.20;;;3.12;81.22;97022.81;4989197;28;20038;-70
2021/10/24 02:00:49;;;;;;;11.40;5.93;;;4.90;77.20;;;3.12;81.34;97028.03;4978327;28;20034;-71
2021/10/24 02:03:15;;;;;;;9.55;5.75;;;4.90;77.10;;;3.08;81.14;97027.44;4993210;28;20121;-71
2021/10/24 02:05:41;;;;;;;11.63;6.35;;;4.90;77.20;;;3.05;81.32;97020.72;4992819;28;20044;-70
2021/10/24 02:08:07;;;;;;;10.75;5.85;;;4.90;77.20;;;3.05;81.12;97023.31;5008274;28;20162;-71
2021/10/24 02:10:33;;;;;;;12.43;6.47;;;4.80;77.10;;;2.99;81.39;97008.22;4992017;28;20124;-70
2021/10/24 02:12:59;;;;;;;10.45;6.32;;;4.80;77.20;;;2.99;81.08;97012.56;4992157;28;20565;-70
2021/10/24 02:15:25;;;;;;;15.30;6.68;;;4.80;77.10;;;2.97;81.34;97006.69;5009398;28;20058;-71
2021/10/24 02:17:51;;;;;;;12.60;6.30;;;4.80;76.90;;;2.96;80.71;97013.66;4976382;28;20065;-71
2021/10/24 02:20:17;;;;;;;12.02;6.00;;;4.80;76.80;;;2.93;80.87;97003.47;4959505;28;20037;-71
2021/10/24 02:22:42;;;;;;;10.98;5.45;;;4.80;76.80;;;2.92;81.00;97012.22;4960310;28;20057;-71
2021/10/24 02:25:08;;;;;;;9.95;5.95;;;4.80;76.90;;;2.87;80.83;97006.53;4993116;28;20041;-71
2021/10/24 02:27:34;;;;;;;9.40;5.75;;;4.70;76.90;;;2.87;81.51;97011.75;4974864;28;20039;-70
2021/10/24 02:30:00;;;;;;;10.63;6.00;;;4.70;77.10;;;2.87;81.29;97009.16;4991908;28;20561;-70
2021/10/24 02:32:26;;;;;;;12.32;5.95;;;4.70;77.30;;;2.85;81.38;96999.81;4992121;28;20448;-70
2021/10/24 02:34:51;;;;;;;14.82;6.50;;;4.70;77.10;;;2.80;81.17;96997.59;5008360;28;20048;-70
2021/10/24 02:37:17;;;;;;;10.15;5.80;;;4.60;77.20;;;2.75;81.64;96994.53;5008630;28;20100;-71
2021/10/24 02:39:43;;;;;;;12.40;6.22;;;4.60;77.30;;;2.80;81.78;97002.78;5009727;28;20061;-70
2021/10/24 02:42:09;;;;;;;9.43;5.30;;;4.60;77.50;;;2.78;81.36;96998.66;4992158;28;20069;-70
2021/10/24 02:44:34;;;;;;;14.85;5.90;;;4.60;77.40;;;2.76;81.51;96997.00;5008332;28;20034;-70
2021/10/24 02:47:00;;;;;;;10.88;5.85;;;4.60;77.50;;;2.77;81.70;96992.63;4992094;28;20097;-70
2021/10/24 02:49:26;;;;;;;11.82;5.55;;;4.60;77.50;;;2.73;81.30;96986.03;4973802;28;20042;-70
2021/10/24 02:51:56;;;;;;;13.65;5.95;;;4.60;77.40;;;2.72;81.65;96986.97;4975843;28;20502;-69
2021/10/24 02:54:22;;;;;;;11.25;6.10;;;4.60;77.40;;;2.70;81.62;96987.06;4992094;28;20028;-69
2021/10/24 02:56:47;;;;;;;9.55;5.88;;;4.60;77.50;;;2.68;81.82;96975.13;5013996;28;20430;-69
2021/10/24 02:59:13;;;;;;;13.15;5.82;;;4.60;77.60;;;2.67;82.00;96979.50;5008117;28;20034;-70
2021/10/24 03:01:39;;;;;;;10.43;5.78;;;4.50;77.70;;;2.67;81.55;96986.47;4992443;28;20037;-69
2021/10/24 03:04:05;;;;;;;12.07;5.75;;;4.50;77.70;;;2.66;81.92;96983.06;4975628;28;20030;-70
2021/10/24 03:06:31;;;;;;;10.57;5.53;;;4.50;77.70;;;2.62;81.84;96973.03;4975839;28;20511;-69
2021/10/24 03:08:57;;;;;;;12.85;5.55;;;4.40;77.60;;;2.63;81.83;96974.66;5007677;28;20095;-70
2021/10/24 03:11:22;;;;;;;13.80;6.03;;;4.50;77.60;;;2.60;81.90;96980.09;5008127;28;20560;-70
2021/10/24 03:13:48;;;;;;;15.27;5.65;;;4.50;77.70;;;2.59;82.01;96981.88;4991994;28;20129;-70
2021/10/24 03:16:14;;;;;;;13.88;5.72;;;4.40;77.70;;;2.57;82.07;96981.19;5007895;28;20034;-70
2021/10/24 03:18:40;;;;;;;10.25;5.38;;;4.40;77.50;;;2.57;81.50;96977.75;4992311;28;20026;-70
2021/10/24 03:21:05;;;;;;;10.85;5.70;;;4.40;77.50;;;2.54;81.74;96975.41;4975008;28;20561;-70
2021/10/24 03:23:31;;;;;;;7.57;5.00;;;4.40;77.50;;;2.53;81.24;96984.13;5008647;28;20052;-70
2021/10/24 03:25:57;;;;;;;10.85;5.15;;;4.40;77.60;;;2.53;81.46;96986.72;5007933;28;20045;-70
2021/10/24 03:28:23;;;;;;;9.32;5.28;;;4.30;77.40;;;2.52;81.65;96977.28;4990727;28;20226;-70
2021/10/24 03:30:49;;;;;;;12.60;5.82;;;4.40;77.60;;;2.50;81.85;96981.78;5009084;28;20034;-70
2021/10/24 03:33:16;;;;;;;9.88;5.43;;;4.30;77.30;;;2.46;81.56;96981.97;5008076;28;20045;-70
2021/10/24 03:35:42;;;;;;;9.13;5.30;;;4.30;77.50;;;2.45;81.72;96988.13;4991882;28;20422;-70
2021/10/24 03:38:08;;;;;;;9.93;5.00;;;4.30;77.40;;;2.43;81.95;96990.00;4992038;28;20042;-71
2021/10/24 03:40:34;;;;;;;9.65;5.32;;;4.20;77.40;;;2.41;81.25;96993.66;4991405;28;20109;-69
2021/10/24 03:42:59;;;;;;;13.13;5.35;;;4.20;77.30;;;2.35;81.71;96989.78;5007065;28;20034;-70
2021/10/24 03:45:25;;;;;;;9.18;4.95;;;4.10;77.20;;;2.29;81.65;96987.66;4978620;28;20045;-70
2021/10/24 03:47:51;;;;;;;10.38;4.90;;;4.10;77.20;;;2.28;81.71;96985.16;5011803;28;20030;-70
2021/10/24 03:50:17;;;;;;;9.38;4.90;;;4.10;77.30;;;2.26;82.02;96982.66;4994872;28;20396;-69
2021/10/24 03:52:42;;;;;;;8.55;5.10;;;4.10;77.30;;;2.24;81.57;96979.34;5000294;28;20458;-70
2021/10/24 03:55:12;;;;;;;10.23;5.00;;;4.10;77.40;;;2.20;81.66;96982.31;4995383;28;20046;-70
2021/10/24 03:57:41;;;;;;;15.15;5.00;;;4.10;77.40;;;2.21;82.04;96984.78;4995755;28;20033;-71
2021/10/24 04:00:09;;;;;;;12.23;5.38;;;4.10;77.40;;;2.18;81.77;96981.59;5008360;28;20145;-71
2021/10/24 04:02:50;;;;;;;10.48;5.35;;;4.10;77.50;;;2.18;83.10;96982.44;4959351;28;20049;-70
2021/10/24 04:05:16;;;;;;;8.88;4.80;;;4.10;77.40;;;2.18;81.30;96989.38;4997686;28;20034;-70
2021/10/24 04:07:42;;;;;;;9.95;5.22;;;4.10;77.60;;;2.15;81.53;96980.88;5012652;28;20534;-70
2021/10/24 04:10:08;;;;;;;11.13;5.20;;;4.00;77.60;;;2.18;81.81;96984.19;5010710;28;20052;-71
2021/10/24 04:12:33;;;;;;;10.75;5.65;;;4.00;77.70;;;2.14;81.83;96974.03;5010648;28;20522;-70
2021/10/24 04:14:59;;;;;;;11.68;5.43;;;4.00;77.80;;;2.14;82.17;96973.22;5011400;28;20511;-71
2021/10/24 04:17:26;;;;;;;10.02;5.57;;;4.10;78.20;;;2.15;81.75;96972.28;5011679;28;20500;-71
2021/10/24 04:19:52;;;;;;;10.93;5.72;;;4.10;77.80;;;2.15;82.07;96967.91;4995144;28;20064;-70
2021/10/24 04:22:18;;;;;;;10.38;5.70;;;4.10;77.70;;;2.14;81.85;96968.84;4994378;28;20520;-69
2021/10/24 04:24:44;;;;;;;9.90;5.15;;;4.10;77.70;;;2.14;82.65;96968.03;4994668;28;20073;-71
2021/10/24 04:27:10;;;;;;;9.77;5.32;;;4.10;77.80;;;2.11;82.21;96963.91;5012404;28;20038;-70
2021/10/24 04:29:35;;;;;;;9.73;5.65;;;4.10;77.80;;;2.14;82.29;96968.03;4994502;28;20030;-70
2021/10/24 04:32:01;;;;;;;9.20;5.47;;;4.10;77.70;;;2.18;82.30;96969.44;4994204;28;20037;-70
2021/10/24 04:34:27;;;;;;;12.20;5.68;;;4.10;77.70;;;2.17;82.03;96973.00;5011886;28;20057;-70
2021/10/24 04:36:53;;;;;;;10.85;5.60;;;4.10;77.50;;;2.17;82.38;96972.16;5010802;28;20054;-70
2021/10/24 04:39:18;;;;;;;13.93;5.43;;;4.10;77.80;;;2.13;82.50;96968.97;4978209;28;20089;-71
2021/10/24 04:41:45;;;;;;;12.27;5.88;;;4.00;77.90;;;2.10;82.07;96967.44;4993769;28;20038;-72
2021/10/24 04:44:11;;;;;;;10.80;5.70;;;4.10;77.80;;;2.10;82.53;96961.44;4962745;28;20129;-72
2021/10/24 04:46:37;;;;;;;12.60;6.00;;;4.00;77.90;;;2.05;82.46;96958.34;4977881;28;20241;-71
2021/10/24 04:49:03;;;;;;;10.07;5.78;;;4.00;77.90;;;2.06;82.56;96960.84;4974670;28;20042;-71
2021/10/24 04:51:29;;;;;;;10.30;5.80;;;4.00;78.00;;;2.08;82.28;96958.13;4975362;28;20590;-71
2021/10/24 04:53:55;;;;;;;10.55;5.85;;;4.00;78.00;;;2.07;82.91;96956.47;4978209;28;20038;-71
2021/10/24 04:56:21;;;;;;;11.70;5.43;;;4.00;78.10;;;2.07;82.46;96956.47;4979950;28;20061;-70
2021/10/24 04:58:46;;;;;;;11.15;5.40;;;4.00;78.00;;;2.05;82.76;96958.34;4993945;28;20026;-73
2021/10/24 05:01:12;;;;;;;9.52;5.35;;;4.00;77.90;;;2.04;82.25;96956.69;4993766;28;20184;-70
2021/10/24 05:03:38;;;;;;;13.40;5.78;;;4.00;78.10;;;2.01;82.43;96952.53;5010805;28;20094;-70
2021/10/24 05:06:05;;;;;;;11.85;6.25;;;4.00;77.90;;;2.02;82.72;96950.78;4993726;28;20041;-70
2021/10/24 05:08:30;;;;;;;8.95;5.18;;;3.90;78.00;;;1.96;82.98;96949.47;4977740;28;20041;-70
2021/10/24 05:10:56;;;;;;;11.23;5.10;;;3.90;78.10;;;1.92;82.54;96947.22;4993162;28;20091;-70
2021/10/24 05:13:22;;;;;;;10.73;5.90;;;3.80;78.20;;;1.90;83.11;96949.13;4977798;28;20053;-70
2021/10/24 05:15:47;;;;;;;10.38;5.57;;;3.80;78.30;;;1.91;82.17;96950.75;4983442;28;20065;-70
2021/10/24 05:18:13;;;;;;;13.50;5.45;;;3.70;78.30;;;1.88;82.68;96940.63;5010631;28;20030;-70
2021/10/24 05:20:39;;;;;;;10.95;6.13;;;3.70;78.30;;;1.87;83.37;96944.16;5008984;28;20164;-69
2021/10/24 05:23:05;;;;;;;36.10;21.45;;;3.80;78.40;;;1.83;82.60;96941.78;4990386;28;20061;-71
2021/10/24 05:25:31;;;;;;;20.30;13.65;;;3.80;78.20;;;1.81;83.12;96941.09;5009441;28;20060;-70
2021/10/24 05:27:58;;;;;;;14.38;7.82;;;3.70;78.30;;;1.78;83.23;96940.47;4977299;28;20049;-70
2021/10/24 05:30:24;;;;;;;13.00;6.47;;;3.60;78.60;;;1.74;83.37;96939.88;4976816;28;20041;-70
2021/10/24 05:32:50;;;;;;;15.82;6.38;;;3.60;78.70;;;1.75;82.88;96936.34;4977134;28;20041;-70
2021/10/24 05:35:16;;;;;;;13.20;7.55;;;3.60;78.80;;;1.74;83.41;96939.03;4993207;28;20041;-69
2021/10/24 05:37:41;;;;;;;23.45;14.80;;;3.70;79.00;;;1.74;83.53;96939.88;4977719;28;20057;-71
2021/10/24 05:40:08;;;;;;;17.98;12.00;;;3.70;79.20;;;1.73;84.43;96922.66;4991579;28;20120;-68
2021/10/24 05:42:34;;;;;;;35.55;23.30;;;3.70;79.30;;;1.74;84.15;96934.69;5021294;28;20045;-69
2021/10/24 05:45:00;;;;;;;32.45;20.70;;;3.70;79.30;;;1.72;84.06;96921.00;5008760;28;20022;-69
2021/10/24 05:47:25;;;;;;;42.60;24.70;;;3.70;79.20;;;1.73;84.28;96934.78;4990130;28;20034;-69
2021/10/24 05:49:51;;;;;;;16.42;9.57;;;3.80;79.10;;;1.76;83.55;96937.97;4976145;28;20034;-68
2021/10/24 05:52:17;;;;;;;11.88;7.30;;;3.70;79.00;;;1.78;84.01;96935.28;5008412;28;20072;-68
2021/10/24 05:54:43;;;;;;;14.80;7.10;;;3.70;78.80;;;1.75;84.33;96936.34;5013161;28;20861;-70
2021/10/24 05:57:09;;;;;;;13.45;7.00;;;3.70;78.90;;;1.76;83.70;96935.38;5007797;28;20165;-70
2021/10/24 05:59:35;;;;;;;10.68;6.75;;;3.70;79.00;;;1.74;84.00;96933.84;5024665;28;20049;-70
2021/10/24 06:02:01;;;;;;;11.23;6.85;;;3.70;79.40;;;1.71;84.07;96940.09;5008240;28;20038;-70
2021/10/24 06:04:27;;;;;;;13.18;7.75;;;3.70;79.50;;;1.74;84.56;96945.06;5024863;28;20568;-71
2021/10/24 06:06:52;;;;;;;14.00;7.50;;;3.70;79.50;;;1.74;85.03;96952.84;4976051;28;20121;-70
2021/10/24 06:09:28;;;;;;;13.75;7.53;;;3.70;79.50;;;1.73;84.26;96937.38;4976035;28;20041;-70
2021/10/24 06:12:01;;;;;;;11.20;7.03;;;3.70;79.70;;;1.75;85.03;96945.88;4978459;28;20450;-70
2021/10/24 06:14:27;;;;;;;11.63;7.88;;;3.80;79.90;;;1.74;85.09;96952.84;4984526;28;20109;-69
2021/10/24 06:16:52;;;;;;;15.75;7.80;;;3.80;79.80;;;1.76;84.97;96957.91;4988335;28;20101;-70
2021/10/24 06:19:18;;;;;;;15.13;7.80;;;3.70;80.10;;;1.81;85.70;96955.78;4992329;28;20541;-70
2021/10/24 06:21:44;;;;;;;13.98;8.48;;;3.80;80.10;;;1.83;85.59;96957.38;4992532;28;20037;-70
2021/10/24 06:24:10;;;;;;;19.23;8.30;;;3.90;80.30;;;1.86;85.95;96958.06;4992279;28;20078;-70
2021/10/24 06:26:36;;;;;;;15.75;8.05;;;3.90;80.20;;;1.88;85.12;96956.19;4992292;28;20118;-70
2021/10/24 06:29:02;;;;;;;14.70;9.48;;;3.90;80.30;;;1.89;85.91;96960.44;5009526;28;20046;-70
2021/10/24 06:31:27;;;;;;;12.57;8.27;;;3.90;80.30;;;1.94;85.63;96950.53;5008837;28;20038;-70
2021/10/24 06:33:54;;;;;;;14.43;9.10;;;3.90;80.30;;;1.96;85.66;96959.03;4988864;28;20416;-73
2021/10/24 06:36:20;;;;;;;13.15;8.43;;;3.90;80.30;;;1.98;85.64;96951.94;4989598;28;20092;-72
2021/10/24 06:38:46;;;;;;;15.75;8.95;;;4.00;80.50;;;2.06;86.26;96958.25;4975776;28;20033;-72
2021/10/24 06:41:12;;;;;;;14.40;8.50;;;4.10;80.30;;;2.09;86.21;96949.38;4992490;28;20137;-73
2021/10/24 06:43:37;;;;;;;11.57;8.48;;;4.20;80.40;;;2.17;85.93;96957.41;4991894;28;20054;-69
2021/10/24 06:46:03;;;;;;;13.85;7.88;;;4.20;80.10;;;2.24;86.16;96963.78;5008731;28;20038;-69
2021/10/24 06:48:29;;;;;;;11.68;8.35;;;4.30;80.10;;;2.33;86.07;96963.09;5009536;28;20117;-71
2021/10/24 06:50:55;;;;;;;12.90;8.18;;;4.50;79.90;;;2.44;85.83;96968.28;4991540;28;20037;-69
2021/10/24 06:53:20;;;;;;;11.50;7.43;;;4.60;79.40;;;2.57;85.94;96980.34;5007657;28;20041;-68
2021/10/24 06:55:46;;;;;;;12.82;7.75;;;4.80;78.60;;;2.63;85.81;96948.69;5014454;28;20084;-69
2021/10/24 06:58:12;;;;;;;12.07;7.15;;;5.00;78.20;;;2.84;85.58;96967.81;4989784;28;20062;-69
2021/10/24 07:00:38;;;;;;;13.85;7.68;;;5.10;77.50;;;2.98;85.75;96964.16;5006481;28;20041;-70
2021/10/24 07:03:03;;;;;;;14.40;7.10;;;5.40;77.00;;;3.07;85.26;96956.44;4989369;28;20455;-70
2021/10/24 07:05:29;;;;;;;14.07;7.25;;;5.60;76.10;;;3.27;84.86;96974.84;4990756;28;20506;-68
2021/10/24 07:07:55;;;;;;;10.63;6.82;;;5.80;75.80;;;3.44;84.65;96969.13;5009071;28;20034;-68
2021/10/24 07:10:21;;;;;;;11.18;7.13;;;6.00;74.60;;;3.60;84.52;96969.50;5008103;28;20069;-73
2021/10/24 07:12:51;;;;;;;28.13;17.50;;;6.30;73.90;;;3.81;83.93;96974.75;4991764;28;20034;-73
2021/10/24 07:15:17;;;;;;;27.10;18.93;;;6.60;73.20;;;4.04;83.47;96970.25;4976668;28;20240;-69
2021/10/24 07:17:43;;;;;;;14.80;10.95;;;6.90;72.10;;;4.25;83.08;96973.66;5008237;28;20288;-69
2021/10/24 07:20:10;;;;;;;11.40;7.78;;;7.20;70.70;;;4.44;82.49;96977.34;5011131;28;20064;-69
2021/10/24 07:22:35;;;;;;;9.65;6.68;;;7.50;69.90;;;4.67;82.29;96973.59;5013121;28;20639;-69
2021/10/24 07:25:02;;;;;;;9.40;6.75;;;7.90;68.30;;;4.89;81.38;96973.41;5011679;28;20038;-67
2021/10/24 07:27:28;;;;;;;8.75;6.72;;;8.20;67.30;;;5.13;80.59;96974.88;5012540;28;20494;-68
2021/10/24 07:29:54;;;;;;;8.95;6.45;;;8.50;66.30;;;5.35;79.82;96976.41;5012624;28;20030;-68
2021/10/24 07:32:20;;;;;;;10.07;6.85;;;8.70;65.50;;;5.56;79.14;96971.91;5011869;28;20037;-69
2021/10/24 07:34:46;;;;;;;18.67;13.48;;;9.00;64.40;;;5.78;79.71;96976.03;4995620;28;20117;-69
2021/10/24 07:37:11;;;;;;;15.65;11.35;;;9.20;64.50;;;5.97;78.33;96978.69;5012737;28;20507;-69
2021/10/24 07:39:37;;;;;;;11.27;7.20;;;9.40;63.50;;;6.19;78.03;96979.34;4995332;28;20042;-67
2021/10/24 07:42:03;;;;;;;25.70;7.07;;;9.70;62.20;;;6.39;77.16;96981.78;5011797;28;20637;-68
2021/10/24 07:44:29;;;;;;;9.95;6.40;;;9.80;61.60;;;6.60;77.46;96976.38;4992178;28;20034;-67
2021/10/24 07:46:56;;;;;;;10.68;5.80;;;10.10;61.40;;;6.75;76.32;96977.53;4988677;28;20041;-69
2021/10/24 07:49:24;;;;;;;11.50;6.22;;;10.20;61.10;;;6.98;75.55;96977.16;4979428;28;20038;-69
2021/10/24 07:51:50;;;;;;;9.20;5.45;;;10.50;60.60;;;7.17;75.39;96982.31;4995617;28;20030;-69
2021/10/24 07:54:16;;;;;;;8.15;5.78;;;10.60;59.10;;;7.32;74.99;96983.47;4994851;28;20569;-70
2021/10/24 07:56:42;;;;;;;10.40;5.93;;;10.90;59.00;;;7.50;74.21;96983.50;4994704;28;20048;-69
2021/10/24 07:59:09;;;;;;;8.30;5.07;;;11.10;58.20;;;7.65;73.41;96973.31;4994920;28;20065;-69
2021/10/24 08:01:36;;;;;;;8.80;5.88;;;11.10;57.00;;;7.81;73.22;96975.28;4975901;28;20065;-70
2021/10/24 08:04:02;;;;;;;8.88;6.00;;;11.30;57.50;;;7.93;72.69;96968.84;4977929;28;20046;-69
2021/10/24 08:06:31;;;;;;;17.50;12.93;;;11.40;56.30;;;8.11;71.55;96972.25;4990962;28;20061;-68
2021/10/24 08:08:58;;;;;;;11.40;8.73;;;11.60;55.90;;;8.27;72.16;96971.56;4993092;28;20026;-68
2021/10/24 08:11:24;;;;;;;9.10;5.95;;;11.70;55.50;;;8.41;71.63;96970.22;4975999;28;20058;-74
2021/10/24 08:13:50;;;;;;;8.52;5.68;;;11.80;55.40;;;8.56;70.66;96981.75;4995353;28;20141;-73
2021/10/24 08:16:16;;;;;;;10.52;5.75;;;11.90;54.60;;;8.71;71.04;96976.78;4994516;28;20586;-70
2021/10/24 08:18:41;;;;;;;8.60;5.47;;;12.10;54.30;;;8.90;70.32;96971.31;5010897;28;20038;-70
2021/10/24 08:21:07;;;;;;;8.10;5.55;;;12.50;53.40;;;9.09;69.68;96968.44;4993464;28;20511;-70
2021/10/24 08:23:33;;;;;;;6.72;5.28;;;12.80;52.80;;;9.31;68.67;96971.47;5012759;28;20033;-69
2021/10/24 08:25:59;;;;;;;8.57;5.35;;;13.00;52.10;;;9.52;68.69;96970.06;4978706;28;20036;-70
2021/10/24 08:28:25;;;;;;;9.57;5.85;;;13.30;50.60;;;9.67;68.51;96967.59;5010880;28;20148;-70
2021/10/24 08:30:52;;;;;;;10.65;5.75;;;13.70;50.10;;;9.92;68.39;96965.81;5009786;28;20026;-69
2021/10/24 08:33:18;;;;;;;13.45;8.73;;;14.10;49.10;;;10.17;67.16;96960.56;5007803;28;20396;-71
2021/10/24 08:35:44;;;;;;;13.55;7.25;;;14.50;48.60;;;10.42;66.91;96960.44;4996337;28;20041;-70
2021/10/24 08:38:10;;;;;;;9.05;6.13;;;14.70;47.60;;;10.67;66.47;96963.84;5008634;28;20064;-70
2021/10/24 08:40:41;;;;;;;9.02;5.60;;;15.10;46.40;;;10.90;66.11;96966.56;5010863;28;20054;-69
2021/10/24 08:43:15;;;;;;;8.73;4.90;;;15.40;45.80;;;11.08;63.93;96957.59;4995161;28;20030;-68
2021/10/24 08:45:48;;;;;;;9.65;5.47;;;15.60;44.60;;;11.26;62.38;96960.81;4992736;28;20034;-73
2021/10/24 08:48:18;;;;;;;10.23;5.65;;;15.70;44.10;;;11.44;61.65;96950.84;4960773;28;20034;-66
2021/10/24 08:50:45;;;;;;;7.80;5.63;;;15.90;43.60;;;11.59;62.80;96957.03;4976938;28;20403;-71
2021/10/24 08:53:12;;;;;;;9.05;5.28;;;16.10;43.40;;;11.73;61.72;96946.72;4994387;28;20120;-69
2021/10/24 08:55:40;;;;;;;7.93;5.10;;;16.30;43.40;;;11.89;62.35;96946.63;4983451;28;20038;-67
2021/10/24 08:58:07;;;;;;;6.68;5.00;;;16.60;43.00;;;12.03;62.14;96945.88;4994438;28;20084;-67
2021/10/24 09:00:32;;;;;;;8.63;5.00;;;16.80;42.00;;;12.18;61.80;96940.63;4991540;28;20030;-68
2021/10/24 09:03:09;;;;;;;9.50;5.70;;;17.20;41.50;;;12.29;59.49;96949.94;5008518;28;20034;-68
2021/10/24 09:05:43;;;;;;;8.40;4.88;;;17.50;41.20;;;12.38;58.33;96947.03;4979737;28;20132;-68
2021/10/24 09:08:12;;;;;;;7.60;5.40;;;17.90;40.20;;;12.46;58.95;96948.81;5008819;28;20044;-66
2021/10/24 09:10:52;;;;;;;8.50;5.60;;;18.10;39.50;;;12.55;57.39;96943.25;4969471;28;20398;-69
2021/10/24 09:13:23;;;;;;;9.50;5.28;;;18.60;38.70;;;12.65;58.65;96948.25;5005807;28;20069;-69
2021/10/24 09:15:52;;;;;;;;;;;19.00;37.90;;;12.63;57.50;96944.97;4974835;28;20088;-67
2021/10/24 09:18:29;;;;;;;9.82;5.00;;;19.10;37.60;;;12.56;59.48;96949.34;5005159;28;20007;-66
2021/10/24 09:20:55;;;;;;;7.95;4.90;;;18.80;37.50;;;12.44;60.28;96940.22;5007537;28;20037;-67
2021/10/24 09:23:21;;;;;;;8.15;4.65;;;18.10;39.10;;;12.40;60.18;96938.94;5009890;28;20034;-66
2021/10/24 09:25:51;;;;;;;7.55;4.82;;;18.20;39.50;;;12.31;59.59;96947.94;5009505;28;20037;-66
2021/10/24 09:28:20;;;;;;;7.70;4.63;;;18.10;38.70;;;12.18;59.16;96941.44;4990043;28;20470;-66
2021/10/24 09:30:48;;;;;;;7.65;4.95;;;17.60;38.90;;;12.10;59.56;96933.63;5006957;28;20496;-69
2021/10/24 09:33:14;;;;;;;11.05;4.93;;;17.30;41.00;;;12.03;59.29;96939.78;4993255;28;20057;-69
2021/10/24 09:35:41;;;;;;;7.85;5.18;;;17.30;41.50;;;12.02;59.17;96944.25;4992894;28;20499;-72
2021/10/24 09:38:22;;;;;;;7.60;4.75;;;18.00;39.50;;;11.95;57.39;96941.47;4993362;28;20495;-72
2021/10/24 09:40:51;;;;;;;6.57;4.80;;;18.60;38.30;;;11.91;59.19;96939.38;4978182;28;20105;-72
2021/10/24 09:43:28;;;;;;;7.30;4.63;;;18.70;37.70;;;11.87;58.22;96935.44;4992739;28;20521;-73
2021/10/24 09:45:56;;;;;;;8.65;4.90;;;17.90;39.50;;;11.83;58.55;96939.44;4988493;28;20053;-71
2021/10/24 09:48:24;;;;;;;6.35;4.65;;;16.80;41.50;;;11.72;58.61;96939.81;5009898;28;20038;-71
2021/10/24 09:50:54;;;;;;;6.93;5.15;;;15.80;43.50;;;11.66;59.11;96930.78;4989898;28;20452;-72
2021/10/24 09:53:30;;;;;;;7.47;4.77;;;15.30;45.30;;;11.60;58.77;96934.94;4996141;28;20030;-73
2021/10/24 09:55:56;;;;;;;7.38;5.03;;;14.80;46.80;;;11.57;58.88;96937.13;5000293;28;20292;-71
2021/10/24 09:58:32;;;;;;;8.43;4.93;;;14.60;48.00;;;11.47;58.53;96936.50;5010626;28;20038;-71
2021/10/24 10:00:59;;;;;;;7.78;4.85;;;14.30;48.70;;;11.40;59.40;96930.28;5007418;28;20041;-71
2021/10/24 10:03:25;;;;;;;6.80;4.70;;;14.10;48.70;;;11.33;58.54;96940.72;5009181;28;20057;-72
2021/10/24 10:05:51;;;;;;;9.80;4.38;;;13.90;49.10;;;11.31;59.37;96932.97;5025597;28;20125;-73
2021/10/24 10:08:20;;;;;;;7.53;4.70;;;14.00;49.50;;;11.34;58.56;96939.72;5026253;28;20041;-69
2021/10/24 10:10:58;;;;;;;7.60;4.93;;;14.00;49.50;;;11.35;59.29;96939.53;4991444;28;20034;-71
2021/10/24 10:13:26;;;;;;;6.35;4.63;;;14.10;50.10;;;11.36;58.60;96940.38;4997582;28;20041;-70
2021/10/24 10:15:52;;;;;;;6.70;4.53;;;14.20;48.90;;;11.35;59.04;96939.53;4964385;28;20034;-70
2021/10/24 10:18:21;;;;;;;7.93;4.60;;;14.30;48.40;;;11.45;59.20;96934.03;4976711;28;20042;-70
2021/10/24 10:20:52;;;;;;;6.25;3.95;;;15.10;47.30;;;11.51;58.80;96940.44;4991761;28;20053;-70
2021/10/24 10:23:23;;;;;;;6.72;4.05;;;16.00;44.50;;;11.61;58.74;96939.22;5025381;28;20507;-70